createdAt,value
2022-11-13T00:00:56.933Z,31.73
2022-11-13T00:03:24.041Z,32.23
2022-11-13T00:06:01.205Z,32.93
2022-11-13T00:08:28.247Z,31.67
2022-11-13T00:11:10.110Z,30.97
2022-11-13T00:13:37.268Z,30.73
2022-11-13T00:16:07.110Z,30.37
2022-11-13T00:18:38.081Z,29.60
2022-11-13T00:21:12.959Z,28.83
2022-11-13T00:23:39.989Z,30.50
2022-11-13T00:26:11.579Z,30.50
2022-11-13T00:28:38.665Z,29.97
2022-11-13T00:31:06.546Z,29.50
2022-11-13T00:36:26.602Z,29.50
2022-11-13T00:39:04.301Z,28.33
2022-11-13T00:41:35.535Z,27.73
2022-11-13T00:44:04.079Z,30.30
2022-11-13T00:46:31.021Z,28.07
2022-11-13T00:48:57.976Z,26.80
2022-11-13T00:51:24.878Z,28.27
2022-11-13T00:53:51.908Z,29.00
2022-11-13T00:56:18.855Z,27.70
2022-11-13T00:58:45.917Z,28.90
2022-11-13T01:01:16.378Z,29.13
2022-11-13T01:03:43.832Z,29.13
2022-11-13T01:06:15.496Z,29.20
2022-11-13T01:08:42.432Z,29.60
2022-11-13T01:11:12.257Z,29.50
2022-11-13T01:13:40.969Z,28.67
2022-11-13T01:16:11.056Z,29.77
2022-11-13T01:18:38.322Z,28.60
2022-11-13T01:21:06.332Z,30.30
2022-11-13T01:23:33.694Z,28.73
2022-11-13T01:26:16.976Z,28.00
2022-11-13T01:28:52.170Z,27.93
2022-11-13T01:31:23.621Z,26.57
2022-11-13T01:33:51.389Z,28.37
2022-11-13T01:36:24.424Z,27.40
2022-11-13T01:38:51.859Z,28.17
2022-11-13T01:41:27.112Z,27.97
2022-11-13T01:43:57.678Z,26.37
2022-11-13T01:46:33.629Z,26.87
2022-11-13T01:49:12.866Z,26.03
2022-11-13T01:51:41.623Z,27.70
2022-11-13T01:54:15.271Z,27.47
2022-11-13T01:56:47.762Z,27.50
2022-11-13T01:59:18.658Z,27.63
2022-11-13T02:01:45.637Z,27.00
2022-11-13T02:04:12.619Z,27.00
2022-11-13T02:07:00.404Z,27.23
2022-11-13T02:09:31.147Z,27.43
2022-11-13T02:11:59.236Z,26.20
2022-11-13T02:14:28.902Z,25.83
2022-11-13T02:17:06.608Z,26.50
2022-11-13T02:19:37.129Z,26.53
2022-11-13T02:22:28.633Z,26.87
2022-11-13T02:24:58.637Z,25.50
2022-11-13T02:27:38.163Z,26.23
2022-11-13T02:30:34.447Z,25.63
2022-11-13T02:33:01.603Z,26.87
2022-11-13T02:35:35.320Z,26.60
2022-11-13T02:38:06.098Z,26.07
2022-11-13T02:40:34.233Z,26.17
2022-11-13T02:43:01.200Z,26.00
2022-11-13T02:45:28.045Z,26.33
2022-11-13T02:47:54.906Z,25.93
2022-11-13T02:50:21.796Z,25.97
2022-11-13T02:52:48.687Z,25.97
2022-11-13T02:55:15.603Z,27.10
2022-11-13T02:57:42.377Z,26.50
2022-11-13T03:00:13.867Z,26.50
2022-11-13T03:02:41.446Z,26.77
2022-11-13T03:05:13.553Z,25.20
2022-11-13T03:07:41.342Z,25.73
2022-11-13T03:10:09.635Z,25.53
2022-11-13T03:12:36.893Z,25.43
2022-11-13T03:15:05.073Z,25.77
2022-11-13T03:17:32.743Z,24.93
2022-11-13T03:19:59.772Z,24.87
2022-11-13T03:22:27.805Z,25.10
2022-11-13T03:24:54.607Z,26.87
2022-11-13T03:27:22.817Z,26.10
2022-11-13T03:29:49.732Z,24.20
2022-11-13T03:32:16.573Z,25.13
2022-11-13T03:34:43.384Z,24.63
2022-11-13T03:37:10.193Z,25.10
2022-11-13T03:39:36.997Z,24.90
2022-11-13T03:42:03.845Z,23.73
2022-11-13T03:44:30.649Z,22.80
2022-11-13T03:46:58.024Z,23.20
2022-11-13T03:49:24.966Z,24.97
2022-11-13T03:51:51.792Z,22.23
2022-11-13T03:54:18.710Z,23.70
2022-11-13T03:56:45.494Z,24.70
2022-11-13T03:59:12.315Z,22.43
2022-11-13T04:01:39.226Z,22.27
2022-11-13T04:04:06.056Z,21.93
2022-11-13T04:06:32.811Z,23.23
2022-11-13T04:08:59.612Z,23.00
2022-11-13T04:11:26.402Z,23.27
2022-11-13T04:13:53.183Z,23.13
2022-11-13T04:16:20.003Z,22.90
2022-11-13T04:18:46.799Z,22.73
2022-11-13T04:21:13.801Z,21.20
2022-11-13T04:23:40.558Z,23.00
2022-11-13T04:26:07.385Z,23.43
2022-11-13T04:28:34.186Z,22.33
2022-11-13T04:31:01.165Z,23.73
2022-11-13T04:33:27.939Z,21.67
2022-11-13T04:35:54.814Z,23.23
2022-11-13T04:38:21.681Z,23.40
2022-11-13T04:41:12.289Z,23.53
2022-11-13T04:43:39.170Z,22.63
2022-11-13T04:46:06.131Z,23.13
2022-11-13T04:48:33.117Z,24.73
2022-11-13T04:50:59.883Z,23.70
2022-11-13T04:53:26.806Z,23.37
2022-11-13T04:55:54.015Z,22.53
2022-11-13T04:58:20.937Z,24.80
2022-11-13T05:00:47.769Z,22.67
2022-11-13T05:03:14.622Z,22.80
2022-11-13T05:05:41.440Z,23.10
2022-11-13T05:08:08.212Z,23.80
2022-11-13T05:10:35.013Z,23.67
2022-11-13T05:13:01.801Z,23.03
2022-11-13T05:15:28.654Z,22.33
2022-11-13T05:17:55.892Z,23.00
2022-11-13T05:20:22.754Z,22.43
2022-11-13T05:22:51.188Z,23.70
2022-11-13T05:25:17.972Z,23.10
2022-11-13T05:27:44.765Z,23.23
2022-11-13T05:30:11.737Z,23.03
2022-11-13T05:32:38.552Z,22.23
2022-11-13T05:35:05.668Z,21.93
2022-11-13T05:37:32.407Z,23.60
2022-11-13T05:39:59.183Z,22.93
2022-11-13T05:42:25.957Z,21.77
2022-11-13T05:44:52.722Z,22.30
2022-11-13T05:47:19.515Z,21.67
2022-11-13T05:49:46.427Z,23.93
2022-11-13T05:52:13.254Z,22.93
2022-11-13T05:54:40.052Z,22.93
2022-11-13T05:57:06.908Z,22.67
2022-11-13T05:59:33.745Z,22.23
2022-11-13T06:02:00.569Z,21.80
2022-11-13T06:04:27.380Z,22.03
2022-11-13T06:06:54.234Z,22.80
2022-11-13T06:09:21.080Z,21.87
2022-11-13T06:11:48.739Z,21.77
2022-11-13T06:14:15.524Z,23.90
2022-11-13T06:16:42.335Z,22.47
2022-11-13T06:19:10.695Z,21.87
2022-11-13T06:21:40.357Z,21.87
2022-11-13T06:24:08.210Z,19.47
2022-11-13T06:26:36.275Z,19.03
2022-11-13T06:29:04.619Z,19.20
2022-11-13T06:31:34.569Z,19.13
2022-11-13T06:34:02.484Z,17.93
2022-11-13T06:36:32.557Z,18.20
2022-11-13T06:38:59.707Z,18.83
2022-11-13T06:41:32.364Z,17.30
2022-11-13T06:44:03.159Z,16.60
2022-11-13T06:46:31.190Z,16.67
2022-11-13T06:48:58.150Z,17.40
2022-11-13T06:51:29.035Z,15.83
2022-11-13T06:53:56.933Z,15.67
2022-11-13T06:56:24.049Z,16.60
2022-11-13T06:58:50.962Z,17.40
2022-11-13T07:01:20.416Z,15.83
2022-11-13T07:03:47.658Z,17.33
2022-11-13T07:06:18.069Z,16.90
2022-11-13T07:08:46.262Z,17.20
2022-11-13T07:11:21.615Z,15.27
2022-11-13T07:13:48.950Z,15.07
2022-11-13T07:16:17.998Z,15.47
2022-11-13T07:18:54.827Z,14.83
2022-11-13T07:21:22.497Z,14.80
2022-11-13T07:23:49.939Z,13.93
2022-11-13T07:26:17.201Z,13.67
2022-11-13T07:28:44.009Z,13.17
2022-11-13T07:31:13.130Z,12.47
2022-11-13T07:33:40.073Z,12.23
2022-11-13T07:36:08.322Z,10.90
2022-11-13T07:38:35.206Z,9.47
2022-11-13T07:41:02.048Z,10.30
2022-11-13T07:43:29.145Z,9.63
2022-11-13T07:45:58.657Z,10.03
2022-11-13T07:48:27.962Z,9.00
2022-11-13T07:50:56.705Z,9.77
2022-11-13T07:53:25.293Z,8.93
2022-11-13T07:56:09.441Z,8.77
2022-11-13T07:58:36.684Z,9.10
2022-11-13T08:01:06.534Z,8.77
2022-11-13T08:03:33.562Z,8.47
2022-11-13T08:06:05.367Z,9.57
2022-11-13T08:08:32.647Z,7.53
2022-11-13T08:11:03.112Z,7.93
2022-11-13T08:13:30.233Z,8.30
2022-11-13T08:16:00.957Z,7.57
2022-11-13T08:18:29.130Z,7.73
2022-11-13T08:20:56.910Z,8.37
2022-11-13T08:23:23.895Z,8.80
2022-11-13T08:25:50.819Z,8.60
2022-11-13T08:28:17.836Z,7.83
2022-11-13T08:30:45.972Z,8.07
2022-11-13T08:33:13.468Z,8.70
2022-11-13T08:35:40.455Z,8.37
2022-11-13T08:38:09.524Z,8.53
2022-11-13T08:40:36.836Z,8.10
2022-11-13T08:43:04.977Z,8.83
2022-11-13T08:45:32.112Z,7.80
2022-11-13T08:48:03.522Z,8.03
2022-11-13T08:50:31.334Z,8.67
2022-11-13T08:52:59.476Z,8.70
2022-11-13T08:55:27.353Z,9.00
2022-11-13T08:57:54.348Z,9.03
2022-11-13T09:00:21.396Z,9.87
2022-11-13T09:02:48.227Z,10.23
2022-11-13T09:05:15.234Z,10.30
2022-11-13T09:07:42.171Z,11.23
2022-11-13T09:10:09.388Z,11.70
2022-11-13T09:12:36.216Z,12.23
2022-11-13T09:15:03.149Z,11.90
2022-11-13T09:17:30.027Z,11.13
2022-11-13T09:20:02.178Z,12.20
2022-11-13T09:22:30.995Z,12.27
2022-11-13T09:24:57.827Z,12.20
2022-11-13T09:27:24.722Z,12.40
2022-11-13T09:29:55.534Z,13.03
2022-11-13T09:32:23.113Z,12.43
2022-11-13T09:34:49.928Z,11.80
2022-11-13T09:37:17.045Z,11.13
2022-11-13T09:39:44.237Z,9.93
2022-11-13T09:42:25.198Z,10.37
2022-11-13T09:45:10.845Z,10.23
2022-11-13T09:47:43.331Z,9.33
2022-11-13T09:50:26.853Z,9.07
2022-11-13T09:52:55.018Z,8.20
2022-11-13T09:55:31.998Z,9.03
2022-11-13T09:58:22.917Z,8.90
2022-11-13T10:00:49.918Z,8.73
2022-11-13T10:03:46.654Z,9.00
2022-11-13T10:06:23.666Z,9.07
2022-11-13T10:09:01.842Z,9.67
2022-11-13T10:11:40.893Z,8.17
2022-11-13T10:14:21.043Z,8.67
2022-11-13T10:17:02.838Z,8.97
2022-11-13T10:19:51.641Z,8.97
2022-11-13T10:22:34.589Z,8.60
2022-11-13T10:25:19.511Z,8.73
2022-11-13T10:27:58.409Z,8.70
2022-11-13T10:31:22.029Z,8.80
2022-11-13T10:33:50.853Z,8.83
2022-11-13T10:36:29.996Z,9.57
2022-11-13T10:39:09.552Z,9.27
2022-11-13T10:42:02.929Z,9.67
2022-11-13T10:44:33.703Z,9.03
2022-11-13T10:47:15.546Z,9.57
2022-11-13T10:49:42.631Z,9.57
2022-11-13T10:52:22.924Z,10.20
2022-11-13T10:54:50.777Z,9.93
2022-11-13T10:57:34.702Z,9.10
2022-11-13T11:00:02.152Z,9.80
2022-11-13T11:02:29.295Z,9.80
2022-11-13T11:05:07.065Z,9.87
2022-11-13T11:07:42.388Z,10.13
2022-11-13T11:10:36.893Z,9.80
2022-11-13T11:13:20.487Z,10.70
2022-11-13T11:16:03.921Z,10.33
2022-11-13T11:18:42.226Z,11.17
2022-11-13T11:21:15.284Z,11.00
2022-11-13T11:24:03.036Z,9.97
2022-11-13T11:26:38.797Z,9.43
2022-11-13T11:29:28.382Z,9.17
2022-11-13T11:32:15.739Z,9.83
2022-11-13T11:34:47.228Z,10.13
2022-11-13T11:37:15.133Z,9.60
2022-11-13T11:39:53.688Z,9.87
2022-11-13T11:42:26.535Z,9.63
2022-11-13T11:44:56.094Z,10.43
2022-11-13T11:47:23.047Z,9.50
2022-11-13T11:49:49.949Z,9.67
2022-11-13T11:52:36.891Z,9.40
2022-11-13T11:55:28.848Z,9.77
2022-11-13T11:58:16.439Z,10.20
2022-11-13T12:00:53.386Z,10.17
2022-11-13T12:03:36.567Z,10.43
2022-11-13T12:06:18.717Z,11.33
2022-11-13T12:09:23.030Z,9.77
2022-11-13T12:12:16.823Z,9.97
2022-11-13T12:15:02.414Z,10.73
2022-11-13T12:17:38.506Z,11.37
2022-11-13T12:20:28.638Z,10.47
2022-11-13T12:23:14.594Z,10.23
2022-11-13T12:26:32.016Z,10.40
2022-11-13T12:29:22.877Z,11.17
2022-11-13T12:32:17.207Z,10.73
2022-11-13T12:34:51.217Z,11.03
2022-11-13T12:37:49.911Z,11.20
2022-11-13T12:40:25.081Z,11.17
2022-11-13T12:43:05.083Z,11.43
2022-11-13T12:45:37.391Z,11.63
2022-11-13T12:48:16.718Z,11.60
2022-11-13T12:51:00.553Z,12.00
2022-11-13T12:53:31.179Z,11.97
2022-11-13T12:56:02.036Z,11.73
2022-11-13T12:58:32.109Z,11.77
2022-11-13T13:01:10.979Z,11.33
2022-11-13T13:04:13.588Z,12.50
2022-11-13T13:06:54.933Z,11.93
2022-11-13T13:09:24.731Z,11.80
2022-11-13T13:12:53.000Z,11.87
2022-11-13T13:15:31.451Z,11.07
2022-11-13T13:18:12.846Z,11.20
2022-11-13T13:20:45.148Z,11.27
2022-11-13T13:23:13.959Z,10.80
2022-11-13T13:25:45.925Z,11.10
2022-11-13T13:28:25.143Z,10.93
2022-11-13T13:31:25.118Z,11.23
2022-11-13T13:34:16.540Z,10.67
2022-11-13T13:37:07.479Z,10.63
2022-11-13T13:40:09.673Z,10.80
2022-11-13T13:43:00.742Z,11.90
2022-11-13T13:46:15.256Z,11.40
2022-11-13T13:48:48.995Z,11.63
2022-11-13T13:51:24.905Z,11.93
2022-11-13T13:53:52.361Z,12.87
2022-11-13T13:56:20.456Z,11.57
2022-11-13T13:58:48.334Z,12.03
2022-11-13T14:01:30.240Z,11.07
2022-11-13T14:04:25.007Z,11.83
2022-11-13T14:06:54.627Z,12.00
2022-11-13T14:09:24.813Z,11.90
2022-11-13T14:14:50.800Z,12.60
2022-11-13T14:17:24.509Z,11.50
2022-11-13T14:19:53.481Z,12.00
2022-11-13T14:22:21.941Z,12.50
2022-11-13T14:24:55.660Z,12.50
2022-11-13T14:27:26.320Z,12.70
2022-11-13T14:29:57.311Z,12.17
2022-11-13T14:32:41.897Z,12.87
2022-11-13T14:35:25.703Z,12.23
2022-11-13T14:37:55.297Z,13.10
2022-11-13T14:40:28.914Z,13.30
2022-11-13T14:42:59.313Z,13.07
2022-11-13T14:45:32.423Z,12.13
2022-11-13T14:48:00.465Z,13.07
2022-11-13T14:50:33.952Z,12.87
2022-11-13T14:53:10.838Z,11.97
2022-11-13T14:55:50.450Z,12.60
2022-11-13T14:58:32.030Z,11.73
2022-11-13T15:01:12.214Z,12.20
2022-11-13T15:03:39.108Z,11.93
2022-11-13T15:06:17.210Z,12.47
2022-11-13T15:08:45.356Z,13.10
2022-11-13T15:11:18.626Z,12.90
2022-11-13T15:13:46.115Z,13.03
2022-11-13T15:16:19.326Z,12.43
2022-11-13T15:18:51.799Z,12.57
2022-11-13T15:21:19.150Z,12.67
2022-11-13T15:23:46.017Z,13.27
2022-11-13T15:26:13.363Z,11.97
2022-11-13T15:28:40.483Z,12.87
2022-11-13T15:31:20.309Z,12.30
2022-11-13T15:33:48.207Z,12.80
2022-11-13T15:36:15.551Z,12.53
2022-11-13T15:38:42.608Z,12.73
2022-11-13T15:41:14.972Z,12.23
2022-11-13T15:43:50.452Z,13.43
2022-11-13T15:46:19.408Z,13.50
2022-11-13T15:48:46.940Z,13.13
2022-11-13T15:51:41.277Z,13.13
2022-11-13T15:54:20.446Z,14.17
2022-11-13T15:56:47.854Z,13.67
2022-11-13T15:59:15.441Z,14.10
2022-11-13T16:01:42.435Z,15.47
2022-11-13T16:04:12.020Z,14.70
2022-11-13T16:06:40.441Z,14.73
2022-11-13T16:09:12.654Z,16.03
2022-11-13T16:11:39.835Z,16.07
2022-11-13T16:14:06.702Z,15.70
2022-11-13T16:16:36.948Z,16.27
2022-11-13T16:19:09.888Z,16.37
2022-11-13T16:21:36.958Z,16.17
2022-11-13T16:24:04.051Z,16.80
2022-11-13T16:26:31.365Z,16.37
2022-11-13T16:29:13.264Z,17.17
2022-11-13T16:31:41.555Z,17.73
2022-11-13T16:34:08.398Z,17.57
2022-11-13T16:36:35.299Z,17.67
2022-11-13T16:39:02.201Z,18.07
2022-11-13T16:41:31.794Z,18.67
2022-11-13T16:43:58.803Z,17.90
2022-11-13T16:46:29.445Z,18.07
2022-11-13T16:48:56.578Z,17.37
2022-11-13T16:51:23.840Z,19.10
2022-11-13T16:53:51.047Z,18.63
2022-11-13T16:56:25.103Z,19.10
2022-11-13T16:58:52.009Z,18.60
2022-11-13T17:01:22.402Z,19.83
2022-11-13T17:03:49.637Z,19.50
2022-11-13T17:06:30.992Z,19.67
2022-11-13T17:08:59.903Z,19.33
2022-11-13T17:11:28.480Z,20.80
2022-11-13T17:13:57.620Z,21.20
2022-11-13T17:16:26.108Z,19.20
2022-11-13T17:18:53.706Z,20.53
2022-11-13T17:21:28.943Z,21.40
2022-11-13T17:24:01.438Z,21.43
2022-11-13T17:26:29.359Z,22.20
2022-11-13T17:28:58.298Z,22.13
2022-11-13T17:31:25.711Z,22.33
2022-11-13T17:33:54.133Z,22.87
2022-11-13T17:36:21.896Z,21.17
2022-11-13T17:38:49.116Z,18.30
2022-11-13T17:41:17.371Z,18.80
2022-11-13T17:43:44.431Z,16.47
2022-11-13T17:46:13.477Z,16.50
2022-11-13T17:48:40.601Z,17.40
2022-11-13T17:51:10.970Z,17.13
2022-11-13T17:53:37.924Z,17.40
2022-11-13T17:56:09.510Z,18.17
2022-11-13T17:58:44.506Z,16.73
2022-11-13T18:01:14.284Z,16.93
2022-11-13T18:03:41.580Z,15.87
2022-11-13T18:06:19.500Z,16.87
2022-11-13T18:08:46.902Z,16.87
2022-11-13T18:11:25.449Z,16.70
2022-11-13T18:13:52.915Z,16.67
2022-11-13T18:16:26.835Z,15.93
2022-11-13T18:18:55.566Z,17.63
2022-11-13T18:21:28.862Z,16.60
2022-11-13T18:24:11.867Z,17.07
2022-11-13T18:26:38.835Z,17.03
2022-11-13T18:29:05.957Z,17.87
2022-11-13T18:31:32.854Z,17.80
2022-11-13T18:34:01.956Z,16.07
2022-11-13T18:36:29.094Z,17.73
2022-11-13T18:38:56.122Z,18.03
2022-11-13T18:41:23.863Z,18.70
2022-11-13T18:43:52.242Z,18.37
2022-11-13T18:46:24.153Z,18.10
2022-11-13T18:48:51.401Z,18.17
2022-11-13T18:51:29.790Z,17.47
2022-11-13T18:53:57.338Z,17.13
2022-11-13T18:56:27.026Z,18.30
2022-11-13T18:58:56.178Z,17.33
2022-11-13T19:01:27.736Z,16.87
2022-11-13T19:04:20.883Z,17.30
2022-11-13T19:06:43.234Z,17.30
2022-11-13T19:09:15.484Z,16.53
2022-11-13T19:11:44.230Z,17.13
2022-11-13T19:14:14.677Z,16.23
2022-11-13T19:16:41.558Z,16.93
2022-11-13T19:19:15.574Z,15.87
2022-11-13T19:21:42.948Z,15.07
2022-11-13T19:24:11.756Z,14.93
2022-11-13T19:26:39.169Z,12.67
2022-11-13T19:29:05.992Z,12.63
2022-11-13T19:31:33.439Z,13.13
2022-11-13T19:34:03.557Z,12.37
2022-11-13T19:36:31.992Z,11.47
2022-11-13T19:38:59.482Z,12.10
2022-11-13T19:41:28.224Z,12.27
2022-11-13T19:43:57.033Z,11.10
2022-11-13T19:46:23.872Z,10.60
2022-11-13T19:48:52.214Z,11.50
2022-11-13T19:51:21.586Z,11.33
2022-11-13T19:53:53.549Z,11.53
2022-11-13T19:56:22.145Z,11.40
2022-11-13T19:58:50.659Z,11.67
2022-11-13T20:01:26.140Z,10.77
2022-11-13T20:03:58.089Z,10.33
2022-11-13T20:06:26.168Z,10.47
2022-11-13T20:08:52.982Z,10.67
2022-11-13T20:11:20.465Z,10.60
2022-11-13T20:13:47.613Z,10.00
2022-11-13T20:16:15.740Z,11.20
2022-11-13T20:18:43.738Z,10.33
2022-11-13T20:21:10.675Z,9.83
2022-11-13T20:23:38.026Z,9.83
2022-11-13T20:26:08.314Z,9.63
2022-11-13T20:28:35.161Z,9.27
2022-11-13T20:31:23.329Z,9.73
2022-11-13T20:33:52.532Z,10.60
2022-11-13T20:36:20.133Z,10.00
2022-11-13T20:38:52.513Z,10.80
2022-11-13T20:41:20.810Z,10.50
2022-11-13T20:43:48.680Z,10.37
2022-11-13T20:46:17.011Z,10.50
2022-11-13T20:48:46.119Z,11.30
2022-11-13T20:51:15.881Z,11.47
2022-11-13T20:53:42.983Z,10.70
2022-11-13T20:56:10.425Z,10.80
2022-11-13T20:58:37.787Z,10.70
2022-11-13T21:01:05.844Z,11.30
2022-11-13T21:03:38.504Z,10.53
2022-11-13T21:06:08.294Z,10.63
2022-11-13T21:08:35.094Z,10.67
2022-11-13T21:11:03.346Z,10.97
2022-11-13T21:13:30.775Z,11.43
2022-11-13T21:15:58.171Z,11.27
2022-11-13T21:18:25.580Z,10.77
2022-11-13T21:20:52.480Z,11.07
2022-11-13T21:23:19.306Z,10.90
2022-11-13T21:25:46.138Z,11.07
2022-11-13T21:28:12.992Z,11.27
2022-11-13T21:30:39.893Z,11.27
2022-11-13T21:33:06.701Z,11.63
2022-11-13T21:35:33.549Z,12.43
2022-11-13T21:38:04.754Z,10.77
2022-11-13T21:40:31.606Z,11.37
2022-11-13T21:42:58.404Z,11.43
2022-11-13T21:45:25.611Z,10.53
2022-11-13T21:47:53.237Z,10.47
2022-11-13T21:50:20.022Z,10.50
2022-11-13T21:52:46.871Z,10.33
2022-11-13T21:55:13.988Z,11.47
2022-11-13T21:57:40.774Z,11.33
2022-11-13T22:00:10.502Z,12.27
2022-11-13T22:02:37.409Z,11.50
2022-11-13T22:05:04.500Z,12.10
2022-11-13T22:07:31.338Z,13.20
2022-11-13T22:09:58.278Z,13.23
2022-11-13T22:12:25.121Z,12.87
2022-11-13T22:14:51.925Z,13.23
2022-11-13T22:17:18.741Z,13.43
2022-11-13T22:19:45.662Z,13.97
2022-11-13T22:22:12.549Z,13.90
2022-11-13T22:24:39.440Z,13.47
2022-11-13T22:27:06.288Z,14.40
2022-11-13T22:29:33.089Z,12.97
2022-11-13T22:31:59.885Z,13.87
2022-11-13T22:34:26.677Z,14.30
2022-11-13T22:36:53.486Z,15.07
2022-11-13T22:39:20.626Z,14.97
2022-11-13T22:41:47.530Z,14.47
2022-11-13T22:44:14.576Z,15.13
2022-11-13T22:46:41.435Z,14.83
2022-11-13T22:49:08.264Z,15.20
2022-11-13T22:51:41.611Z,15.50
2022-11-13T22:54:12.452Z,17.40
2022-11-13T22:56:41.128Z,15.87
2022-11-13T22:59:11.458Z,17.03
2022-11-13T23:01:41.138Z,16.53
2022-11-13T23:04:12.127Z,15.50
2022-11-13T23:06:39.272Z,15.53
2022-11-13T23:09:06.614Z,15.00
2022-11-13T23:11:37.991Z,14.93
2022-11-13T23:14:07.085Z,15.17
2022-11-13T23:16:34.510Z,14.57
2022-11-13T23:19:02.343Z,14.70
2022-11-13T23:21:29.805Z,14.73
2022-11-13T23:23:57.421Z,13.87
2022-11-13T23:26:25.465Z,14.23
2022-11-13T23:28:52.573Z,14.67
2022-11-13T23:31:19.736Z,13.13
2022-11-13T23:33:46.538Z,13.30
2022-11-13T23:36:14.808Z,13.30
2022-11-13T23:38:42.155Z,13.77
2022-11-13T23:41:10.155Z,12.90
2022-11-13T23:44:07.218Z,12.83
2022-11-13T23:46:23.843Z,12.10
2022-11-13T23:48:50.637Z,13.23
2022-11-13T23:51:17.471Z,12.30
2022-11-13T23:53:44.271Z,12.40
2022-11-13T23:56:11.402Z,11.90
2022-11-13T23:58:38.198Z,12.60
